createdAt,value
2018-07-23T00:04:43.196Z,91.60
2018-07-23T00:10:12.459Z,91.60
2018-07-23T00:15:42.494Z,91.60
2018-07-23T00:21:11.770Z,91.60
2018-07-23T00:26:41.009Z,91.60
2018-07-23T00:32:10.513Z,91.70
2018-07-23T00:37:39.726Z,91.70
2018-07-23T00:43:09.099Z,91.70
2018-07-23T00:48:38.411Z,91.70
2018-07-23T00:54:07.681Z,91.70
2018-07-23T00:59:37.048Z,91.70
2018-07-23T01:05:06.406Z,91.60
2018-07-23T01:10:35.824Z,91.70
2018-07-23T01:21:34.447Z,91.70
2018-07-23T01:27:03.765Z,91.70
2018-07-23T01:32:32.999Z,91.70
2018-07-23T01:38:02.284Z,91.70
2018-07-23T01:43:31.544Z,91.70
2018-07-23T01:49:00.844Z,91.70
2018-07-23T01:54:30.234Z,91.70
2018-07-23T01:59:59.506Z,91.70
2018-07-23T02:05:28.830Z,91.70
2018-07-23T02:10:58.120Z,91.70
2018-07-23T02:16:28.483Z,91.70
2018-07-23T02:21:57.755Z,91.80
2018-07-23T02:27:26.987Z,91.80
2018-07-23T02:32:56.235Z,91.70
2018-07-23T02:38:25.539Z,91.70
2018-07-23T02:43:54.862Z,91.80
2018-07-23T02:49:24.171Z,91.80
2018-07-23T02:54:53.517Z,91.80
2018-07-23T03:00:22.902Z,91.80
2018-07-23T03:05:52.281Z,91.80
2018-07-23T03:11:21.788Z,91.90
2018-07-23T03:16:52.212Z,91.80
2018-07-23T03:22:21.526Z,91.90
2018-07-23T03:27:50.990Z,91.90
2018-07-23T03:33:20.280Z,92.00
2018-07-23T03:38:49.578Z,92.00
2018-07-23T03:44:18.949Z,92.00
2018-07-23T03:49:48.325Z,92.00
2018-07-23T03:55:18.230Z,92.00
2018-07-23T04:00:47.531Z,92.00
2018-07-23T04:06:16.866Z,92.00
2018-07-23T04:11:46.792Z,92.00
2018-07-23T04:17:16.062Z,92.00
2018-07-23T04:22:45.509Z,92.00
2018-07-23T04:28:14.742Z,92.10
2018-07-23T04:33:44.046Z,92.10
2018-07-23T04:39:13.357Z,92.10
2018-07-23T04:44:42.601Z,92.10
2018-07-23T04:50:11.825Z,92.10
2018-07-23T04:55:41.114Z,92.40
2018-07-23T05:01:10.335Z,92.20
2018-07-23T05:06:39.657Z,92.20
2018-07-23T05:12:08.880Z,92.20
2018-07-23T05:17:38.124Z,92.20
2018-07-23T05:23:07.432Z,92.20
2018-07-23T05:28:36.659Z,92.20
2018-07-23T05:34:05.892Z,92.20
2018-07-23T05:39:35.231Z,92.20
2018-07-23T05:45:04.955Z,92.20
2018-07-23T05:50:34.169Z,92.20
2018-07-23T05:56:03.506Z,92.20
2018-07-23T06:01:32.807Z,92.50
2018-07-23T06:07:02.257Z,92.10
2018-07-23T06:12:31.339Z,92.10
2018-07-23T06:18:00.611Z,92.00
2018-07-23T06:23:29.847Z,92.00
2018-07-23T06:28:59.257Z,91.80
2018-07-23T06:34:28.581Z,91.80
2018-07-23T06:39:57.913Z,91.80
2018-07-23T06:45:27.283Z,91.60
2018-07-23T06:50:56.521Z,91.60
2018-07-23T06:56:25.892Z,91.50
2018-07-23T07:01:55.218Z,91.40
2018-07-23T07:07:24.548Z,91.40
2018-07-23T07:12:54.346Z,91.40
2018-07-23T07:18:23.644Z,91.30
2018-07-23T07:23:53.027Z,91.20
2018-07-23T07:29:22.343Z,91.10
2018-07-23T07:34:51.718Z,90.90
2018-07-23T07:40:21.081Z,90.80
2018-07-23T07:45:50.451Z,90.60
2018-07-23T07:51:19.879Z,90.30
2018-07-23T07:56:49.280Z,90.10
2018-07-23T08:02:18.579Z,89.80
2018-07-23T08:07:47.935Z,89.60
2018-07-23T08:13:17.324Z,89.10
2018-07-23T08:18:46.708Z,88.50
2018-07-23T08:24:16.012Z,88.10
2018-07-23T08:29:45.255Z,88.10
2018-07-23T08:35:14.480Z,87.70
2018-07-23T08:40:43.803Z,87.40
2018-07-23T08:46:13.019Z,87.30
2018-07-23T08:51:42.276Z,86.60
2018-07-23T08:57:13.651Z,86.40
2018-07-23T09:02:42.915Z,86.40
2018-07-23T09:08:12.482Z,86.10
2018-07-23T09:13:41.669Z,85.80
2018-07-23T09:19:11.027Z,85.90
2018-07-23T09:24:40.228Z,85.90
2018-07-23T09:30:14.717Z,85.50
2018-07-23T09:35:43.884Z,85.30
2018-07-23T09:41:13.201Z,85.30
2018-07-23T09:46:42.449Z,84.60
2018-07-23T09:52:11.674Z,84.10
2018-07-23T09:57:40.941Z,83.70
2018-07-23T10:03:10.275Z,83.50
2018-07-23T10:08:39.371Z,83.00
2018-07-23T10:14:09.024Z,82.60
2018-07-23T10:19:38.265Z,82.40
2018-07-23T10:25:07.534Z,80.10
2018-07-23T10:30:36.788Z,78.90
2018-07-23T10:36:06.025Z,79.10
2018-07-23T10:41:35.239Z,77.80
2018-07-23T10:47:04.508Z,77.30
2018-07-23T10:52:33.688Z,76.70
2018-07-23T10:58:03.019Z,76.20
2018-07-23T11:03:32.247Z,75.00
2018-07-23T11:09:01.593Z,74.60
2018-07-23T11:14:30.845Z,73.00
2018-07-23T11:20:00.102Z,73.80
2018-07-23T11:25:43.491Z,72.60
2018-07-23T11:30:58.829Z,71.50
2018-07-23T11:36:28.036Z,71.10
2018-07-23T11:41:57.258Z,70.70
2018-07-23T11:47:26.496Z,71.00
2018-07-23T11:52:55.742Z,69.60
2018-07-23T11:58:25.388Z,68.80
2018-07-23T12:03:54.726Z,66.90
2018-07-23T12:09:24.120Z,65.40
2018-07-23T12:14:53.385Z,65.20
2018-07-23T12:20:22.707Z,65.90
2018-07-23T12:25:52.036Z,65.30
2018-07-23T12:31:21.458Z,65.40
2018-07-23T12:36:50.855Z,65.60
2018-07-23T12:42:20.604Z,65.50
2018-07-23T12:47:49.998Z,64.40
2018-07-23T12:53:19.402Z,64.10
2018-07-23T12:58:49.060Z,64.20
2018-07-23T13:04:20.511Z,63.40
2018-07-23T13:09:50.306Z,62.40
2018-07-23T13:15:20.814Z,61.30
2018-07-23T13:20:50.348Z,61.30
2018-07-23T13:26:20.320Z,61.60
2018-07-23T13:31:50.047Z,62.00
2018-07-23T13:37:19.628Z,63.00
2018-07-23T13:42:49.528Z,63.90
2018-07-23T13:48:18.980Z,64.00
2018-07-23T13:53:48.523Z,63.60
2018-07-23T13:59:17.925Z,63.90
2018-07-23T14:04:47.557Z,64.00
2018-07-23T14:10:17.055Z,64.40
2018-07-23T14:15:46.666Z,63.80
2018-07-23T14:21:15.941Z,64.10
2018-07-23T14:26:45.333Z,64.20
2018-07-23T14:32:14.622Z,64.10
2018-07-23T14:37:43.966Z,64.50
2018-07-23T14:43:13.338Z,63.80
2018-07-23T14:48:42.628Z,63.30
2018-07-23T14:54:12.926Z,63.20
2018-07-23T14:59:42.176Z,62.60
2018-07-23T15:05:11.428Z,58.60
2018-07-23T15:10:40.712Z,60.40
2018-07-23T15:16:09.969Z,61.30
2018-07-23T15:21:39.201Z,60.60
2018-07-23T15:32:37.598Z,60.30
2018-07-23T15:38:06.867Z,59.60
2018-07-23T15:43:36.339Z,59.50
2018-07-23T15:49:05.584Z,59.20
2018-07-23T15:54:35.261Z,59.00
2018-07-23T16:00:05.576Z,58.60
2018-07-23T16:05:34.923Z,58.30
2018-07-23T16:11:04.177Z,58.40
2018-07-23T16:16:33.792Z,58.70
2018-07-23T16:22:03.480Z,59.00
2018-07-23T16:27:32.787Z,59.40
2018-07-23T16:33:02.055Z,59.30
2018-07-23T16:38:31.295Z,59.20
2018-07-23T16:44:00.548Z,59.10
2018-07-23T16:49:29.924Z,58.80
2018-07-23T16:54:59.182Z,58.60
2018-07-23T17:00:29.018Z,59.10
2018-07-23T17:05:58.660Z,59.60
2018-07-23T17:11:28.058Z,60.00
2018-07-23T17:16:57.440Z,60.10
2018-07-23T17:22:28.090Z,60.30
2018-07-23T17:27:57.462Z,60.50
2018-07-23T17:33:26.684Z,61.10
2018-07-23T17:38:56.273Z,61.60
2018-07-23T17:44:25.458Z,62.10
2018-07-23T17:49:55.078Z,62.60
2018-07-23T17:55:24.347Z,62.80
2018-07-23T18:00:53.618Z,63.30
2018-07-23T18:06:23.151Z,63.30
2018-07-23T18:11:56.502Z,64.20
2018-07-23T18:17:25.901Z,66.20
2018-07-23T18:22:55.156Z,68.20
2018-07-23T18:28:24.503Z,69.40
2018-07-23T18:33:53.886Z,70.70
2018-07-23T18:39:23.237Z,71.60
2018-07-23T18:44:53.581Z,72.20
2018-07-23T18:50:23.021Z,72.70
2018-07-23T18:55:52.516Z,73.40
2018-07-23T19:01:21.961Z,74.00
2018-07-23T19:06:51.649Z,74.50
2018-07-23T19:12:21.161Z,75.40
2018-07-23T19:17:50.628Z,76.10
2018-07-23T19:23:21.036Z,76.50
2018-07-23T19:28:50.392Z,76.70
2018-07-23T19:34:19.862Z,77.30
2018-07-23T19:39:49.202Z,77.50
2018-07-23T19:45:18.531Z,77.70
2018-07-23T19:50:48.012Z,78.10
2018-07-23T19:56:17.299Z,78.60
2018-07-23T20:01:46.795Z,78.30
2018-07-23T20:07:16.073Z,78.40
2018-07-23T20:12:45.323Z,78.00
2018-07-23T20:18:14.625Z,78.00
2018-07-23T20:23:44.375Z,78.20
2018-07-23T20:29:13.762Z,78.40
2018-07-23T20:34:43.091Z,78.60
2018-07-23T20:40:12.462Z,78.80
2018-07-23T20:45:41.715Z,79.10
2018-07-23T20:51:11.175Z,79.30
2018-07-23T20:56:40.511Z,79.60
2018-07-23T21:02:09.850Z,80.10
2018-07-23T21:07:39.119Z,80.20
2018-07-23T21:13:08.448Z,80.40
2018-07-23T21:18:37.685Z,80.50
2018-07-23T21:24:06.998Z,80.70
2018-07-23T21:29:36.345Z,80.90
2018-07-23T21:40:35.356Z,81.30
2018-07-23T21:46:04.895Z,81.40
2018-07-23T21:51:34.292Z,81.50
2018-07-23T21:57:03.716Z,81.60
2018-07-23T22:02:33.463Z,81.70
2018-07-23T22:08:02.780Z,81.90
2018-07-23T22:13:32.015Z,82.10
2018-07-23T22:19:01.486Z,82.60
2018-07-23T22:24:30.790Z,84.40
2018-07-23T22:30:00.029Z,83.40
2018-07-23T22:35:29.218Z,83.20
2018-07-23T22:40:58.531Z,83.10
2018-07-23T22:46:27.782Z,84.00
2018-07-23T22:51:57.079Z,83.20
2018-07-23T22:57:26.349Z,83.30
2018-07-23T23:02:55.817Z,83.40
2018-07-23T23:08:25.169Z,83.40
2018-07-23T23:13:54.527Z,83.50
2018-07-23T23:19:23.937Z,83.60
2018-07-23T23:24:53.268Z,83.50
2018-07-23T23:30:22.671Z,83.70
2018-07-23T23:35:52.077Z,83.70
2018-07-23T23:41:21.500Z,83.80
2018-07-23T23:46:50.841Z,83.90
2018-07-23T23:52:20.180Z,83.90
2018-07-23T23:57:49.531Z,83.90
